sensor_id;sensor_type;location;lat;lon;timestamp;temperature;humidity
26707;DHT22;14319;49.422;10.934;2023-03-05T00:01:15;2.80;79.40
26707;DHT22;14319;49.422;10.934;2023-03-05T00:03:17;2.80;79.50
26707;DHT22;14319;49.422;10.934;2023-03-05T00:05:18;2.80;79.90
26707;DHT22;14319;49.422;10.934;2023-03-05T00:07:18;2.80;79.70
26707;DHT22;14319;49.422;10.934;2023-03-05T00:09:19;2.80;79.90
26707;DHT22;14319;49.422;10.934;2023-03-05T00:11:20;2.70;80.00
26707;DHT22;14319;49.422;10.934;2023-03-05T00:13:21;2.70;80.40
26707;DHT22;14319;49.422;10.934;2023-03-05T00:15:21;2.70;80.20
26707;DHT22;14319;49.422;10.934;2023-03-05T00:17:22;2.80;80.20
26707;DHT22;14319;49.422;10.934;2023-03-05T00:19:22;2.70;80.30
26707;DHT22;14319;49.422;10.934;2023-03-05T00:21:27;2.60;80.50
26707;DHT22;14319;49.422;10.934;2023-03-05T00:23:27;2.70;80.60
26707;DHT22;14319;49.422;10.934;2023-03-05T00:25:28;2.70;80.40
26707;DHT22;14319;49.422;10.934;2023-03-05T00:27:29;2.80;80.60
26707;DHT22;14319;49.422;10.934;2023-03-05T00:29:29;2.80;80.60
26707;DHT22;14319;49.422;10.934;2023-03-05T00:31:31;2.80;80.80
26707;DHT22;14319;49.422;10.934;2023-03-05T00:33:33;2.70;81.20
26707;DHT22;14319;49.422;10.934;2023-03-05T00:35:42;2.70;81.30
26707;DHT22;14319;49.422;10.934;2023-03-05T00:37:42;2.70;81.50
26707;DHT22;14319;49.422;10.934;2023-03-05T00:39:43;2.70;81.60
26707;DHT22;14319;49.422;10.934;2023-03-05T00:41:44;2.60;81.80
26707;DHT22;14319;49.422;10.934;2023-03-05T00:43:45;2.60;81.90
26707;DHT22;14319;49.422;10.934;2023-03-05T00:45:46;2.60;82.40
26707;DHT22;14319;49.422;10.934;2023-03-05T00:47:47;2.60;82.00
26707;DHT22;14319;49.422;10.934;2023-03-05T00:49:47;2.60;82.20
26707;DHT22;14319;49.422;10.934;2023-03-05T00:51:48;2.60;82.40
26707;DHT22;14319;49.422;10.934;2023-03-05T00:53:48;2.60;82.20
26707;DHT22;14319;49.422;10.934;2023-03-05T00:55:49;2.60;82.40
26707;DHT22;14319;49.422;10.934;2023-03-05T00:57:50;2.60;82.50
26707;DHT22;14319;49.422;10.934;2023-03-05T00:59:50;2.60;82.40
26707;DHT22;14319;49.422;10.934;2023-03-05T01:01:51;2.60;82.20
26707;DHT22;14319;49.422;10.934;2023-03-05T01:03:51;2.60;82.10
26707;DHT22;14319;49.422;10.934;2023-03-05T01:05:52;2.70;82.10
26707;DHT22;14319;49.422;10.934;2023-03-05T01:07:53;2.60;82.90
26707;DHT22;14319;49.422;10.934;2023-03-05T01:09:54;2.60;82.10
26707;DHT22;14319;49.422;10.934;2023-03-05T01:11:55;2.70;82.20
26707;DHT22;14319;49.422;10.934;2023-03-05T01:13:56;2.60;82.30
26707;DHT22;14319;49.422;10.934;2023-03-05T01:15:56;2.70;82.40
26707;DHT22;14319;49.422;10.934;2023-03-05T01:17:57;2.70;82.10
26707;DHT22;14319;49.422;10.934;2023-03-05T01:19:57;2.70;82.00
26707;DHT22;14319;49.422;10.934;2023-03-05T01:21:58;2.70;82.00
26707;DHT22;14319;49.422;10.934;2023-03-05T01:23:59;2.80;81.90
26707;DHT22;14319;49.422;10.934;2023-03-05T01:26:00;2.70;82.10
26707;DHT22;14319;49.422;10.934;2023-03-05T01:28:01;2.70;82.20
26707;DHT22;14319;49.422;10.934;2023-03-05T01:30:01;2.60;82.10
26707;DHT22;14319;49.422;10.934;2023-03-05T01:32:02;2.60;82.20
26707;DHT22;14319;49.422;10.934;2023-03-05T01:34:03;2.70;82.10
26707;DHT22;14319;49.422;10.934;2023-03-05T01:36:11;2.70;82.10
26707;DHT22;14319;49.422;10.934;2023-03-05T01:38:14;2.80;81.90
26707;DHT22;14319;49.422;10.934;2023-03-05T01:40:19;2.80;81.50
26707;DHT22;14319;49.422;10.934;2023-03-05T01:42:19;2.70;81.90
26707;DHT22;14319;49.422;10.934;2023-03-05T01:44:26;2.80;81.60
26707;DHT22;14319;49.422;10.934;2023-03-05T01:46:37;2.70;81.60
26707;DHT22;14319;49.422;10.934;2023-03-05T01:48:42;2.70;81.70
26707;DHT22;14319;49.422;10.934;2023-03-05T01:50:43;2.70;81.90
26707;DHT22;14319;49.422;10.934;2023-03-05T01:52:52;2.70;81.90
26707;DHT22;14319;49.422;10.934;2023-03-05T01:54:57;2.60;82.00
26707;DHT22;14319;49.422;10.934;2023-03-05T01:57:01;2.60;82.20
26707;DHT22;14319;49.422;10.934;2023-03-05T01:59:03;2.70;82.10
26707;DHT22;14319;49.422;10.934;2023-03-05T02:01:04;2.70;81.90
26707;DHT22;14319;49.422;10.934;2023-03-05T02:03:07;2.70;81.70
26707;DHT22;14319;49.422;10.934;2023-03-05T02:05:11;2.70;81.90
26707;DHT22;14319;49.422;10.934;2023-03-05T02:07:13;2.60;81.90
26707;DHT22;14319;49.422;10.934;2023-03-05T02:09:15;2.60;82.20
26707;DHT22;14319;49.422;10.934;2023-03-05T02:11:15;2.60;82.40
26707;DHT22;14319;49.422;10.934;2023-03-05T02:13:20;2.60;82.40
26707;DHT22;14319;49.422;10.934;2023-03-05T02:15:22;2.60;82.10
26707;DHT22;14319;49.422;10.934;2023-03-05T02:17:25;2.50;82.00
26707;DHT22;14319;49.422;10.934;2023-03-05T02:19:26;2.50;82.60
26707;DHT22;14319;49.422;10.934;2023-03-05T02:21:35;2.60;82.40
26707;DHT22;14319;49.422;10.934;2023-03-05T02:23:37;2.50;82.20
26707;DHT22;14319;49.422;10.934;2023-03-05T02:25:38;2.60;82.20
26707;DHT22;14319;49.422;10.934;2023-03-05T02:27:40;2.60;82.00
26707;DHT22;14319;49.422;10.934;2023-03-05T02:29:44;2.60;81.90
26707;DHT22;14319;49.422;10.934;2023-03-05T02:31:45;2.60;81.50
26707;DHT22;14319;49.422;10.934;2023-03-05T02:33:47;2.60;81.60
26707;DHT22;14319;49.422;10.934;2023-03-05T02:35:49;2.50;81.70
26707;DHT22;14319;49.422;10.934;2023-03-05T02:37:49;2.50;82.00
26707;DHT22;14319;49.422;10.934;2023-03-05T02:39:51;2.50;82.10
26707;DHT22;14319;49.422;10.934;2023-03-05T02:41:51;2.50;82.10
26707;DHT22;14319;49.422;10.934;2023-03-05T02:43:52;2.50;81.90
26707;DHT22;14319;49.422;10.934;2023-03-05T02:45:52;2.50;81.80
26707;DHT22;14319;49.422;10.934;2023-03-05T02:47:54;2.50;81.60
26707;DHT22;14319;49.422;10.934;2023-03-05T02:49:55;2.50;81.50
26707;DHT22;14319;49.422;10.934;2023-03-05T02:51:56;2.60;81.50
26707;DHT22;14319;49.422;10.934;2023-03-05T02:53:57;2.80;81.30
26707;DHT22;14319;49.422;10.934;2023-03-05T02:56:00;2.90;80.50
26707;DHT22;14319;49.422;10.934;2023-03-05T02:58:01;2.90;80.00
26707;DHT22;14319;49.422;10.934;2023-03-05T03:00:02;2.90;80.20
26707;DHT22;14319;49.422;10.934;2023-03-05T03:02:03;2.70;80.60
26707;DHT22;14319;49.422;10.934;2023-03-05T03:04:04;2.60;80.90
26707;DHT22;14319;49.422;10.934;2023-03-05T03:06:05;2.60;81.30
26707;DHT22;14319;49.422;10.934;2023-03-05T03:08:05;2.60;80.90
26707;DHT22;14319;49.422;10.934;2023-03-05T03:10:07;2.50;81.30
26707;DHT22;14319;49.422;10.934;2023-03-05T03:12:09;2.50;81.30
26707;DHT22;14319;49.422;10.934;2023-03-05T03:14:10;2.50;81.60
26707;DHT22;14319;49.422;10.934;2023-03-05T03:16:12;2.60;81.70
26707;DHT22;14319;49.422;10.934;2023-03-05T03:18:13;2.50;81.80
26707;DHT22;14319;49.422;10.934;2023-03-05T03:20:16;2.60;81.90
26707;DHT22;14319;49.422;10.934;2023-03-05T03:22:17;2.70;81.10
26707;DHT22;14319;49.422;10.934;2023-03-05T03:24:18;2.60;80.90
26707;DHT22;14319;49.422;10.934;2023-03-05T03:26:19;2.60;81.30
26707;DHT22;14319;49.422;10.934;2023-03-05T03:28:19;2.60;81.20
26707;DHT22;14319;49.422;10.934;2023-03-05T03:30:20;2.60;81.20
26707;DHT22;14319;49.422;10.934;2023-03-05T03:32:20;2.70;81.40
26707;DHT22;14319;49.422;10.934;2023-03-05T03:34:21;2.60;81.00
26707;DHT22;14319;49.422;10.934;2023-03-05T03:36:22;2.70;81.10
26707;DHT22;14319;49.422;10.934;2023-03-05T03:38:22;2.60;80.90
26707;DHT22;14319;49.422;10.934;2023-03-05T03:40:23;2.60;81.40
26707;DHT22;14319;49.422;10.934;2023-03-05T03:42:24;2.70;81.10
26707;DHT22;14319;49.422;10.934;2023-03-05T03:44:25;2.70;81.30
26707;DHT22;14319;49.422;10.934;2023-03-05T03:46:25;2.70;81.50
26707;DHT22;14319;49.422;10.934;2023-03-05T03:48:26;2.70;81.20
26707;DHT22;14319;49.422;10.934;2023-03-05T03:50:26;2.70;81.40
26707;DHT22;14319;49.422;10.934;2023-03-05T03:52:27;2.80;81.00
26707;DHT22;14319;49.422;10.934;2023-03-05T03:54:28;2.80;80.90
26707;DHT22;14319;49.422;10.934;2023-03-05T03:56:28;2.80;81.10
26707;DHT22;14319;49.422;10.934;2023-03-05T03:58:29;2.80;81.20
26707;DHT22;14319;49.422;10.934;2023-03-05T04:00:29;2.80;81.20
26707;DHT22;14319;49.422;10.934;2023-03-05T04:02:30;2.70;81.30
26707;DHT22;14319;49.422;10.934;2023-03-05T04:04:31;2.70;81.60
26707;DHT22;14319;49.422;10.934;2023-03-05T04:06:32;2.60;81.60
26707;DHT22;14319;49.422;10.934;2023-03-05T04:08:33;2.70;81.80
26707;DHT22;14319;49.422;10.934;2023-03-05T04:10:33;2.80;81.30
26707;DHT22;14319;49.422;10.934;2023-03-05T04:12:34;2.80;81.20
26707;DHT22;14319;49.422;10.934;2023-03-05T04:14:35;2.70;81.40
26707;DHT22;14319;49.422;10.934;2023-03-05T04:16:35;2.80;81.60
26707;DHT22;14319;49.422;10.934;2023-03-05T04:18:36;2.90;81.20
26707;DHT22;14319;49.422;10.934;2023-03-05T04:20:37;2.80;81.00
26707;DHT22;14319;49.422;10.934;2023-03-05T04:22:37;2.90;81.00
26707;DHT22;14319;49.422;10.934;2023-03-05T04:24:38;3.00;80.40
26707;DHT22;14319;49.422;10.934;2023-03-05T04:26:38;3.10;80.20
26707;DHT22;14319;49.422;10.934;2023-03-05T04:28:39;3.00;80.20
26707;DHT22;14319;49.422;10.934;2023-03-05T04:30:40;2.90;80.50
26707;DHT22;14319;49.422;10.934;2023-03-05T04:32:41;2.90;80.70
26707;DHT22;14319;49.422;10.934;2023-03-05T04:34:41;2.90;81.00
26707;DHT22;14319;49.422;10.934;2023-03-05T04:36:42;2.80;81.10
26707;DHT22;14319;49.422;10.934;2023-03-05T04:38:42;2.70;81.40
26707;DHT22;14319;49.422;10.934;2023-03-05T04:40:44;2.70;81.60
26707;DHT22;14319;49.422;10.934;2023-03-05T04:42:45;2.70;81.40
26707;DHT22;14319;49.422;10.934;2023-03-05T04:44:47;2.70;81.70
26707;DHT22;14319;49.422;10.934;2023-03-05T04:46:48;2.60;81.80
26707;DHT22;14319;49.422;10.934;2023-03-05T04:48:49;2.70;81.80
26707;DHT22;14319;49.422;10.934;2023-03-05T04:50:50;2.70;81.60
26707;DHT22;14319;49.422;10.934;2023-03-05T04:52:50;2.80;81.70
26707;DHT22;14319;49.422;10.934;2023-03-05T04:54:51;2.90;81.40
26707;DHT22;14319;49.422;10.934;2023-03-05T04:56:51;3.00;80.90
26707;DHT22;14319;49.422;10.934;2023-03-05T04:58:52;3.00;80.60
26707;DHT22;14319;49.422;10.934;2023-03-05T05:00:53;2.90;80.40
26707;DHT22;14319;49.422;10.934;2023-03-05T05:02:53;3.00;80.70
26707;DHT22;14319;49.422;10.934;2023-03-05T05:04:54;2.90;80.50
26707;DHT22;14319;49.422;10.934;2023-03-05T05:06:55;2.90;80.90
26707;DHT22;14319;49.422;10.934;2023-03-05T05:08:56;2.80;80.80
26707;DHT22;14319;49.422;10.934;2023-03-05T05:11:06;2.80;81.00
26707;DHT22;14319;49.422;10.934;2023-03-05T05:13:07;2.80;81.10
26707;DHT22;14319;49.422;10.934;2023-03-05T05:15:08;2.80;81.10
26707;DHT22;14319;49.422;10.934;2023-03-05T05:17:08;2.80;81.10
26707;DHT22;14319;49.422;10.934;2023-03-05T05:19:09;2.80;80.80
26707;DHT22;14319;49.422;10.934;2023-03-05T05:21:12;2.80;81.00
26707;DHT22;14319;49.422;10.934;2023-03-05T05:23:13;2.80;81.10
26707;DHT22;14319;49.422;10.934;2023-03-05T05:25:14;2.70;81.10
26707;DHT22;14319;49.422;10.934;2023-03-05T05:27:14;2.70;81.40
26707;DHT22;14319;49.422;10.934;2023-03-05T05:29:15;2.70;81.50
26707;DHT22;14319;49.422;10.934;2023-03-05T05:31:16;2.70;81.60
26707;DHT22;14319;49.422;10.934;2023-03-05T05:33:17;2.70;81.60
26707;DHT22;14319;49.422;10.934;2023-03-05T05:35:17;2.80;81.20
26707;DHT22;14319;49.422;10.934;2023-03-05T05:37:18;2.80;80.90
26707;DHT22;14319;49.422;10.934;2023-03-05T05:39:19;2.80;81.10
26707;DHT22;14319;49.422;10.934;2023-03-05T05:41:19;2.80;81.10
26707;DHT22;14319;49.422;10.934;2023-03-05T05:43:20;2.70;81.20
26707;DHT22;14319;49.422;10.934;2023-03-05T05:45:20;2.60;81.30
26707;DHT22;14319;49.422;10.934;2023-03-05T05:47:21;2.60;81.70
26707;DHT22;14319;49.422;10.934;2023-03-05T05:49:22;2.60;81.90
26707;DHT22;14319;49.422;10.934;2023-03-05T05:51:22;2.60;81.90
26707;DHT22;14319;49.422;10.934;2023-03-05T05:53:24;2.60;81.70
26707;DHT22;14319;49.422;10.934;2023-03-05T05:55:24;2.50;81.90
26707;DHT22;14319;49.422;10.934;2023-03-05T05:57:25;2.50;82.20
26707;DHT22;14319;49.422;10.934;2023-03-05T05:59:26;2.60;82.00
26707;DHT22;14319;49.422;10.934;2023-03-05T06:01:29;2.60;81.90
26707;DHT22;14319;49.422;10.934;2023-03-05T06:03:30;2.60;82.00
26707;DHT22;14319;49.422;10.934;2023-03-05T06:05:30;2.70;81.90
26707;DHT22;14319;49.422;10.934;2023-03-05T06:07:33;2.80;81.20
26707;DHT22;14319;49.422;10.934;2023-03-05T06:09:34;2.80;81.20
26707;DHT22;14319;49.422;10.934;2023-03-05T06:11:36;2.80;81.10
26707;DHT22;14319;49.422;10.934;2023-03-05T06:13:37;2.80;80.90
26707;DHT22;14319;49.422;10.934;2023-03-05T06:15:38;2.80;80.90
26707;DHT22;14319;49.422;10.934;2023-03-05T06:17:38;2.90;80.90
26707;DHT22;14319;49.422;10.934;2023-03-05T06:19:39;3.00;80.80
26707;DHT22;14319;49.422;10.934;2023-03-05T06:21:40;2.80;80.90
26707;DHT22;14319;49.422;10.934;2023-03-05T06:23:43;2.80;81.00
26707;DHT22;14319;49.422;10.934;2023-03-05T06:25:43;2.80;81.00
26707;DHT22;14319;49.422;10.934;2023-03-05T06:27:44;2.90;80.90
26707;DHT22;14319;49.422;10.934;2023-03-05T06:29:45;3.00;80.90
26707;DHT22;14319;49.422;10.934;2023-03-05T06:31:45;2.90;81.10
26707;DHT22;14319;49.422;10.934;2023-03-05T06:33:47;2.90;81.30
26707;DHT22;14319;49.422;10.934;2023-03-05T06:35:48;2.90;81.00
26707;DHT22;14319;49.422;10.934;2023-03-05T06:37:48;2.90;81.00
26707;DHT22;14319;49.422;10.934;2023-03-05T06:39:49;2.90;81.30
26707;DHT22;14319;49.422;10.934;2023-03-05T06:41:50;2.90;81.10
26707;DHT22;14319;49.422;10.934;2023-03-05T06:43:51;3.00;81.00
26707;DHT22;14319;49.422;10.934;2023-03-05T06:46:03;3.00;80.80
26707;DHT22;14319;49.422;10.934;2023-03-05T06:48:04;3.00;80.60
26707;DHT22;14319;49.422;10.934;2023-03-05T06:50:05;3.10;80.80
26707;DHT22;14319;49.422;10.934;2023-03-05T06:52:06;3.00;80.40
26707;DHT22;14319;49.422;10.934;2023-03-05T06:54:14;3.00;80.70
26707;DHT22;14319;49.422;10.934;2023-03-05T06:56:16;3.00;80.80
26707;DHT22;14319;49.422;10.934;2023-03-05T06:58:16;3.00;80.90
26707;DHT22;14319;49.422;10.934;2023-03-05T07:00:17;3.00;81.00
26707;DHT22;14319;49.422;10.934;2023-03-05T07:02:18;3.00;80.90
26707;DHT22;14319;49.422;10.934;2023-03-05T07:04:19;2.90;81.30
26707;DHT22;14319;49.422;10.934;2023-03-05T07:06:20;2.90;81.70
26707;DHT22;14319;49.422;10.934;2023-03-05T07:08:21;2.80;81.70
26707;DHT22;14319;49.422;10.934;2023-03-05T07:10:21;2.80;82.00
26707;DHT22;14319;49.422;10.934;2023-03-05T07:12:22;2.90;81.80
26707;DHT22;14319;49.422;10.934;2023-03-05T07:14:23;3.00;81.10
26707;DHT22;14319;49.422;10.934;2023-03-05T07:16:25;2.90;81.60
26707;DHT22;14319;49.422;10.934;2023-03-05T07:18:26;2.80;81.90
26707;DHT22;14319;49.422;10.934;2023-03-05T07:20:27;2.80;82.10
26707;DHT22;14319;49.422;10.934;2023-03-05T07:22:29;2.70;82.40
26707;DHT22;14319;49.422;10.934;2023-03-05T07:24:29;2.70;82.60
26707;DHT22;14319;49.422;10.934;2023-03-05T07:26:31;2.70;82.60
26707;DHT22;14319;49.422;10.934;2023-03-05T07:28:33;2.70;82.60
26707;DHT22;14319;49.422;10.934;2023-03-05T07:30:34;2.70;82.40
26707;DHT22;14319;49.422;10.934;2023-03-05T07:32:35;2.90;82.70
26707;DHT22;14319;49.422;10.934;2023-03-05T07:34:36;2.80;82.10
26707;DHT22;14319;49.422;10.934;2023-03-05T07:36:37;2.80;81.90
26707;DHT22;14319;49.422;10.934;2023-03-05T07:38:38;2.80;82.10
26707;DHT22;14319;49.422;10.934;2023-03-05T07:40:39;2.80;82.00
26707;DHT22;14319;49.422;10.934;2023-03-05T07:42:39;2.80;82.00
26707;DHT22;14319;49.422;10.934;2023-03-05T07:44:47;2.90;82.40
26707;DHT22;14319;49.422;10.934;2023-03-05T07:46:47;2.90;82.10
26707;DHT22;14319;49.422;10.934;2023-03-05T07:48:48;2.90;81.80
26707;DHT22;14319;49.422;10.934;2023-03-05T07:50:49;3.00;82.10
26707;DHT22;14319;49.422;10.934;2023-03-05T07:52:50;3.00;81.60
26707;DHT22;14319;49.422;10.934;2023-03-05T07:54:51;3.10;81.40
26707;DHT22;14319;49.422;10.934;2023-03-05T07:56:53;3.10;81.40
26707;DHT22;14319;49.422;10.934;2023-03-05T07:58:54;3.30;81.20
26707;DHT22;14319;49.422;10.934;2023-03-05T08:00:54;3.40;80.80
26707;DHT22;14319;49.422;10.934;2023-03-05T08:02:55;3.40;80.60
26707;DHT22;14319;49.422;10.934;2023-03-05T08:04:55;3.40;80.10
26707;DHT22;14319;49.422;10.934;2023-03-05T08:06:57;3.50;80.50
26707;DHT22;14319;49.422;10.934;2023-03-05T08:08:59;3.50;79.70
26707;DHT22;14319;49.422;10.934;2023-03-05T08:11:11;3.60;79.80
26707;DHT22;14319;49.422;10.934;2023-03-05T08:13:12;3.70;79.50
26707;DHT22;14319;49.422;10.934;2023-03-05T08:15:12;3.80;78.80
26707;DHT22;14319;49.422;10.934;2023-03-05T08:17:13;3.80;77.30
26707;DHT22;14319;49.422;10.934;2023-03-05T08:19:13;3.70;76.30
26707;DHT22;14319;49.422;10.934;2023-03-05T08:21:20;3.70;76.80
26707;DHT22;14319;49.422;10.934;2023-03-05T08:23:21;3.70;76.80
26707;DHT22;14319;49.422;10.934;2023-03-05T08:25:21;3.60;75.40
26707;DHT22;14319;49.422;10.934;2023-03-05T08:27:22;3.60;75.00
26707;DHT22;14319;49.422;10.934;2023-03-05T08:29:24;3.50;74.80
26707;DHT22;14319;49.422;10.934;2023-03-05T08:31:25;3.40;74.70
26707;DHT22;14319;49.422;10.934;2023-03-05T08:33:26;3.30;75.70
26707;DHT22;14319;49.422;10.934;2023-03-05T08:35:27;3.40;76.30
26707;DHT22;14319;49.422;10.934;2023-03-05T08:37:27;3.30;75.60
26707;DHT22;14319;49.422;10.934;2023-03-05T08:39:28;3.20;73.70
26707;DHT22;14319;49.422;10.934;2023-03-05T08:41:29;3.10;74.40
26707;DHT22;14319;49.422;10.934;2023-03-05T08:43:30;3.20;74.70
26707;DHT22;14319;49.422;10.934;2023-03-05T08:45:30;3.30;75.20
26707;DHT22;14319;49.422;10.934;2023-03-05T08:47:31;3.30;74.40
26707;DHT22;14319;49.422;10.934;2023-03-05T08:49:32;3.30;74.60
26707;DHT22;14319;49.422;10.934;2023-03-05T08:51:33;3.30;74.40
26707;DHT22;14319;49.422;10.934;2023-03-05T08:53:34;3.30;74.50
26707;DHT22;14319;49.422;10.934;2023-03-05T08:55:34;3.10;74.10
26707;DHT22;14319;49.422;10.934;2023-03-05T08:57:35;3.20;74.50
26707;DHT22;14319;49.422;10.934;2023-03-05T08:59:36;3.50;75.00
26707;DHT22;14319;49.422;10.934;2023-03-05T09:01:37;3.40;71.90
26707;DHT22;14319;49.422;10.934;2023-03-05T09:03:38;3.10;73.60
26707;DHT22;14319;49.422;10.934;2023-03-05T09:05:38;3.30;74.40
26707;DHT22;14319;49.422;10.934;2023-03-05T09:07:39;3.10;70.60
26707;DHT22;14319;49.422;10.934;2023-03-05T09:09:39;3.30;72.00
26707;DHT22;14319;49.422;10.934;2023-03-05T09:11:40;3.40;70.30
26707;DHT22;14319;49.422;10.934;2023-03-05T09:13:41;3.50;71.90
26707;DHT22;14319;49.422;10.934;2023-03-05T09:15:41;3.50;70.50
26707;DHT22;14319;49.422;10.934;2023-03-05T09:17:42;3.60;70.60
26707;DHT22;14319;49.422;10.934;2023-03-05T09:19:43;3.40;70.60
26707;DHT22;14319;49.422;10.934;2023-03-05T09:21:43;3.40;72.10
26707;DHT22;14319;49.422;10.934;2023-03-05T09:23:44;3.40;71.60
26707;DHT22;14319;49.422;10.934;2023-03-05T09:25:46;3.50;70.90
26707;DHT22;14319;49.422;10.934;2023-03-05T09:27:47;3.50;70.80
26707;DHT22;14319;49.422;10.934;2023-03-05T09:29:48;3.70;70.40
26707;DHT22;14319;49.422;10.934;2023-03-05T09:31:50;3.70;70.30
26707;DHT22;14319;49.422;10.934;2023-03-05T09:33:50;3.50;70.90
26707;DHT22;14319;49.422;10.934;2023-03-05T09:35:51;3.40;71.90
26707;DHT22;14319;49.422;10.934;2023-03-05T09:37:51;3.00;72.90
26707;DHT22;14319;49.422;10.934;2023-03-05T09:39:52;3.20;73.60
26707;DHT22;14319;49.422;10.934;2023-03-05T09:50:43;3.40;72.90
26707;DHT22;14319;49.422;10.934;2023-03-05T09:52:55;3.10;72.70
26707;DHT22;14319;49.422;10.934;2023-03-05T09:54:57;3.20;73.60
26707;DHT22;14319;49.422;10.934;2023-03-05T09:57:01;3.10;74.20
26707;DHT22;14319;49.422;10.934;2023-03-05T09:59:28;3.20;74.00
26707;DHT22;14319;49.422;10.934;2023-03-05T10:01:39;3.10;73.30
26707;DHT22;14319;49.422;10.934;2023-03-05T10:03:58;2.80;74.80
26707;DHT22;14319;49.422;10.934;2023-03-05T10:06:36;2.80;75.60
26707;DHT22;14319;49.422;10.934;2023-03-05T10:10:52;2.70;76.40
26707;DHT22;14319;49.422;10.934;2023-03-05T10:12:56;2.70;75.50
26707;DHT22;14319;49.422;10.934;2023-03-05T10:14:59;2.70;76.70
26707;DHT22;14319;49.422;10.934;2023-03-05T10:17:10;2.90;76.00
26707;DHT22;14319;49.422;10.934;2023-03-05T10:26:39;2.90;75.10
26707;DHT22;14319;49.422;10.934;2023-03-05T10:31:07;2.70;76.60
26707;DHT22;14319;49.422;10.934;2023-03-05T10:33:36;2.80;74.90
26707;DHT22;14319;49.422;10.934;2023-03-05T10:40:27;3.40;74.50
26707;DHT22;14319;49.422;10.934;2023-03-05T10:42:52;3.60;74.80
26707;DHT22;14319;49.422;10.934;2023-03-05T10:44:59;3.80;73.00
26707;DHT22;14319;49.422;10.934;2023-03-05T10:47:00;3.90;70.70
26707;DHT22;14319;49.422;10.934;2023-03-05T10:49:19;3.60;69.10
26707;DHT22;14319;49.422;10.934;2023-03-05T10:51:37;3.40;67.80
26707;DHT22;14319;49.422;10.934;2023-03-05T10:55:54;3.60;67.10
26707;DHT22;14319;49.422;10.934;2023-03-05T10:58:00;3.80;66.50
26707;DHT22;14319;49.422;10.934;2023-03-05T11:02:07;3.80;66.30
26707;DHT22;14319;49.422;10.934;2023-03-05T11:04:26;4.10;67.60
26707;DHT22;14319;49.422;10.934;2023-03-05T11:06:28;4.30;65.60
26707;DHT22;14319;49.422;10.934;2023-03-05T11:08:32;4.10;64.60
26707;DHT22;14319;49.422;10.934;2023-03-05T11:10:33;4.10;65.40
26707;DHT22;14319;49.422;10.934;2023-03-05T11:12:35;3.70;64.10
26707;DHT22;14319;49.422;10.934;2023-03-05T11:14:39;3.60;64.90
26707;DHT22;14319;49.422;10.934;2023-03-05T11:16:50;3.90;65.90
26707;DHT22;14319;49.422;10.934;2023-03-05T11:21:20;3.90;63.70
26707;DHT22;14319;49.422;10.934;2023-03-05T11:23:26;4.00;63.40
26707;DHT22;14319;49.422;10.934;2023-03-05T11:25:27;4.10;62.70
26707;DHT22;14319;49.422;10.934;2023-03-05T11:27:34;4.00;61.80
26707;DHT22;14319;49.422;10.934;2023-03-05T11:29:47;3.90;62.40
26707;DHT22;14319;49.422;10.934;2023-03-05T11:31:47;4.10;63.50
26707;DHT22;14319;49.422;10.934;2023-03-05T11:34:23;4.20;63.40
26707;DHT22;14319;49.422;10.934;2023-03-05T11:36:38;4.10;62.20
26707;DHT22;14319;49.422;10.934;2023-03-05T11:41:08;4.00;61.80
26707;DHT22;14319;49.422;10.934;2023-03-05T11:43:14;4.00;61.10
26707;DHT22;14319;49.422;10.934;2023-03-05T11:45:17;4.20;61.80
26707;DHT22;14319;49.422;10.934;2023-03-05T11:49:41;4.60;61.10
26707;DHT22;14319;49.422;10.934;2023-03-05T11:54:13;4.30;60.80
26707;DHT22;14319;49.422;10.934;2023-03-05T11:56:22;4.30;60.30
26707;DHT22;14319;49.422;10.934;2023-03-05T11:58:45;4.10;60.30
26707;DHT22;14319;49.422;10.934;2023-03-05T12:00:47;3.80;60.20
26707;DHT22;14319;49.422;10.934;2023-03-05T12:02:51;3.90;60.20
26707;DHT22;14319;49.422;10.934;2023-03-05T12:04:56;4.00;60.60
26707;DHT22;14319;49.422;10.934;2023-03-05T12:07:02;4.20;61.70
26707;DHT22;14319;49.422;10.934;2023-03-05T12:09:11;4.30;61.10
26707;DHT22;14319;49.422;10.934;2023-03-05T12:11:18;4.40;60.70
26707;DHT22;14319;49.422;10.934;2023-03-05T12:13:25;4.30;59.50
26707;DHT22;14319;49.422;10.934;2023-03-05T12:17:32;4.40;60.60
26707;DHT22;14319;49.422;10.934;2023-03-05T12:22:16;4.60;62.10
26707;DHT22;14319;49.422;10.934;2023-03-05T12:24:37;4.40;59.70
26707;DHT22;14319;49.422;10.934;2023-03-05T12:28:56;4.40;60.90
26707;DHT22;14319;49.422;10.934;2023-03-05T12:33:28;4.50;59.30
26707;DHT22;14319;49.422;10.934;2023-03-05T12:35:33;4.10;58.80
26707;DHT22;14319;49.422;10.934;2023-03-05T12:41:46;4.10;61.40
26707;DHT22;14319;49.422;10.934;2023-03-05T12:46:25;4.20;60.50
26707;DHT22;14319;49.422;10.934;2023-03-05T12:50:46;4.20;60.30
26707;DHT22;14319;49.422;10.934;2023-03-05T12:52:47;4.20;60.20
26707;DHT22;14319;49.422;10.934;2023-03-05T12:55:11;4.40;60.70
26707;DHT22;14319;49.422;10.934;2023-03-05T12:57:17;4.60;60.30
26707;DHT22;14319;49.422;10.934;2023-03-05T12:59:20;4.40;59.60
26707;DHT22;14319;49.422;10.934;2023-03-05T13:01:33;4.40;61.20
26707;DHT22;14319;49.422;10.934;2023-03-05T13:03:57;4.40;60.30
26707;DHT22;14319;49.422;10.934;2023-03-05T13:05:59;4.30;60.40
26707;DHT22;14319;49.422;10.934;2023-03-05T13:08:16;4.00;59.90
26707;DHT22;14319;49.422;10.934;2023-03-05T13:10:28;3.90;60.80
26707;DHT22;14319;49.422;10.934;2023-03-05T13:12:29;3.80;61.00
26707;DHT22;14319;49.422;10.934;2023-03-05T13:14:40;3.70;60.70
26707;DHT22;14319;49.422;10.934;2023-03-05T13:16:41;3.60;61.10
26707;DHT22;14319;49.422;10.934;2023-03-05T13:18:46;3.50;61.40
26707;DHT22;14319;49.422;10.934;2023-03-05T13:20:47;3.60;62.20
26707;DHT22;14319;49.422;10.934;2023-03-05T13:23:21;3.70;63.20
26707;DHT22;14319;49.422;10.934;2023-03-05T13:25:22;3.80;61.20
26707;DHT22;14319;49.422;10.934;2023-03-05T13:27:30;3.90;62.20
26707;DHT22;14319;49.422;10.934;2023-03-05T13:29:31;4.00;61.50
26707;DHT22;14319;49.422;10.934;2023-03-05T13:31:34;4.20;61.60
26707;DHT22;14319;49.422;10.934;2023-03-05T13:33:35;4.20;61.70
26707;DHT22;14319;49.422;10.934;2023-03-05T13:35:43;4.20;60.90
26707;DHT22;14319;49.422;10.934;2023-03-05T13:37:45;4.30;62.40
26707;DHT22;14319;49.422;10.934;2023-03-05T13:39:51;4.30;62.40
26707;DHT22;14319;49.422;10.934;2023-03-05T13:42:04;4.30;62.20
26707;DHT22;14319;49.422;10.934;2023-03-05T13:44:16;4.40;61.50
26707;DHT22;14319;49.422;10.934;2023-03-05T13:46:28;4.50;60.60
26707;DHT22;14319;49.422;10.934;2023-03-05T13:48:32;4.10;61.30
26707;DHT22;14319;49.422;10.934;2023-03-05T13:50:38;4.20;62.70
26707;DHT22;14319;49.422;10.934;2023-03-05T13:52:39;4.40;62.20
26707;DHT22;14319;49.422;10.934;2023-03-05T13:54:39;4.10;62.00